Time;durP1;ratioP1;P1;durP2;ratioP2;P2;SDS_P1;SDS_P2;PMS_P1;PMS_P2;Temp;Humidity;BMP_temperature;BMP_pressure;BME280_temperature;BME280_humidity;BME280_pressure;Samples;Min_cycle;Max_cycle;Signal;HPM_P1;HPM_P2
2021/05/16 00:00:51;;;;;;;32.63;14.55;;;;;;;7.94;82.15;93923.09;1716509;83;20975;-53
2021/05/16 00:03:18;;;;;;;36.55;16.00;;;;;;;7.93;81.84;93924.30;1716673;83;20974;-52
2021/05/16 00:05:47;;;;;;;36.68;16.45;;;;;;;7.88;81.71;93906.48;1716784;83;21034;-53
2021/05/16 00:08:14;;;;;;;28.30;14.38;;;;;;;7.83;81.67;93910.40;1716717;82;21090;-55
2021/05/16 00:10:41;;;;;;;28.87;14.00;;;;;;;7.77;81.90;93913.58;1716727;83;20991;-53
2021/05/16 00:13:08;;;;;;;27.50;13.60;;;;;;;7.70;82.01;93916.59;1716755;83;21519;-53
2021/05/16 00:15:35;;;;;;;23.75;13.98;;;;;;;7.66;82.10;93915.97;1716870;83;21618;-54
2021/05/16 00:18:01;;;;;;;24.70;12.58;;;;;;;7.61;81.95;93913.20;1716612;83;21059;-53
2021/05/16 00:20:29;;;;;;;25.17;13.65;;;;;;;7.58;81.87;93914.09;1716852;82;21090;-54
2021/05/16 00:22:57;;;;;;;23.10;12.20;;;;;;;7.60;81.98;93916.37;1716806;83;21533;-54
2021/05/16 00:25:25;;;;;;;34.95;12.30;;;;;;;7.58;81.92;93915.47;1716686;83;21047;-52
2021/05/16 00:27:52;;;;;;;19.42;12.10;;;;;;;7.55;81.91;93915.59;1716835;82;21015;-52
2021/05/16 00:30:21;;;;;;;27.15;12.70;;;;;;;7.51;81.87;93919.81;1716687;83;21059;-53
2021/05/16 00:32:47;;;;;;;31.25;13.30;;;;;;;7.49;82.00;93907.19;1716695;83;21084;-53
2021/05/16 00:35:17;;;;;;;20.55;12.13;;;;;;;7.53;82.18;93913.29;1716634;82;21510;-53
2021/05/16 00:37:43;;;;;;;19.95;12.28;;;;;;;7.57;81.97;93908.47;1716809;83;20987;-53
2021/05/16 00:40:11;;;;;;;22.20;11.05;;;;;;;7.58;81.80;93907.84;1716743;82;20970;-54
2021/05/16 00:42:38;;;;;;;21.87;11.03;;;;;;;7.54;81.94;93905.23;1690429;83;21093;-53
2021/05/16 00:45:12;;;;;;;17.70;11.05;;;;;;;7.55;82.05;93909.50;1716891;83;21654;-52
2021/05/16 00:47:39;;;;;;;21.68;11.70;;;;;;;7.51;81.73;93915.71;1715934;83;21038;-54
2021/05/16 00:50:08;;;;;;;25.68;12.80;;;;;;;7.46;81.86;93914.93;1716706;82;21059;-53
2021/05/16 00:52:35;;;;;;;23.75;11.33;;;;;;;7.45;82.20;93909.89;1716767;82;21110;-53
2021/05/16 00:55:06;;;;;;;26.87;10.75;;;;;;;7.50;82.23;93907.97;1668335;83;21378;-53
2021/05/16 00:57:32;;;;;;;20.43;11.53;;;;;;;7.43;81.74;93903.52;1716758;83;21087;-52
2021/05/16 00:59:59;;;;;;;20.35;10.23;;;;;;;7.31;81.78;93913.92;1716688;83;21042;-53
2021/05/16 01:02:26;;;;;;;18.00;10.65;;;;;;;7.28;82.01;93897.63;1690649;83;21067;-53
2021/05/16 01:04:53;;;;;;;21.05;10.35;;;;;;;7.25;82.09;93897.93;1716760;83;21035;-52
2021/05/16 01:07:20;;;;;;;25.77;12.33;;;;;;;7.27;82.20;93903.72;1716868;83;21011;-52
2021/05/16 01:09:47;;;;;;;32.23;12.70;;;;;;;7.27;82.41;93896.87;1716819;83;21876;-52
2021/05/16 01:12:16;;;;;;;31.62;12.93;;;;;;;7.27;82.23;93887.89;1716611;83;21003;-53
2021/05/16 01:14:44;;;;;;;32.70;13.22;;;;;;;7.23;82.20;93892.14;1716611;83;20983;-53
2021/05/16 01:17:11;;;;;;;38.67;12.23;;;;;;;7.18;82.19;93891.33;1690883;83;21051;-52
2021/05/16 01:19:39;;;;;;;28.42;12.88;;;;;;;7.13;82.19;93886.44;1716687;83;21047;-52
2021/05/16 01:22:07;;;;;;;36.63;13.80;;;;;;;7.09;82.20;93881.70;1716726;83;21855;-52
2021/05/16 01:24:38;;;;;;;25.57;13.43;;;;;;;7.04;82.33;93886.23;1716600;83;20975;-53
2021/05/16 01:27:12;;;;;;;31.52;13.25;;;;;;;7.06;82.65;93884.56;1716629;83;21054;-53
2021/05/16 01:29:39;;;;;;;34.80;16.67;;;;;;;7.10;82.55;93883.23;1716839;83;21007;-53
2021/05/16 01:32:11;;;;;;;24.05;14.23;;;;;;;7.08;82.46;93881.55;1716711;83;21581;-52
2021/05/16 01:34:35;;;;;;;25.32;13.28;;;;;;;7.10;82.45;93875.03;1716387;83;21657;-53
2021/05/16 01:37:02;;;;;;;31.42;14.05;;;;;;;7.08;82.21;93881.39;1716662;83;20995;-53
2021/05/16 01:39:29;;;;;;;25.15;13.45;;;;;;;7.01;82.38;93891.98;1716766;83;21582;-54
2021/05/16 01:41:56;;;;;;;26.05;12.47;;;;;;;6.99;82.48;93878.58;1716655;83;21074;-54
2021/05/16 01:44:24;;;;;;;31.48;13.35;;;;;;;6.99;82.42;93877.99;1716773;83;20899;-53
2021/05/16 01:46:52;;;;;;;38.35;14.53;;;;;;;7.00;82.22;93889.67;1716868;83;21554;-53
2021/05/16 01:49:19;;;;;;;38.35;14.78;;;;;;;6.99;82.22;93893.03;1716718;82;21574;-53
2021/05/16 01:51:46;;;;;;;35.38;15.32;;;;;;;7.00;82.43;93888.31;1716735;83;21002;-52
2021/05/16 01:54:13;;;;;;;34.43;15.72;;;;;;;6.99;82.42;93889.52;1716694;83;21031;-52
2021/05/16 01:56:40;;;;;;;27.58;14.50;;;;;;;6.95;82.27;93890.25;1716840;83;21043;-53
2021/05/16 01:59:06;;;;;;;40.98;14.75;;;;;;;6.91;82.25;93892.36;1716721;83;22191;-53
2021/05/16 02:01:33;;;;;;;27.00;13.72;;;;;;;6.92;82.22;93891.15;1716580;83;21023;-53
2021/05/16 02:04:02;;;;;;;34.40;15.43;;;;;;;6.91;82.19;93900.56;1716795;82;20987;-55
2021/05/16 02:06:29;;;;;;;31.48;14.87;;;;;;;6.91;82.01;93899.19;1716613;82;21027;-53
2021/05/16 02:08:57;;;;;;;36.00;18.73;;;;;;;6.86;81.81;93899.14;1716749;83;21498;-53
2021/05/16 02:11:26;;;;;;;37.75;15.98;;;;;;;6.84;81.82;93898.05;1716511;83;21717;-53
2021/05/16 02:13:54;;;;;;;27.73;11.45;;;;;;;6.81;81.83;93894.25;1716233;83;20944;-53
2021/05/16 02:16:21;;;;;;;25.62;13.30;;;;;;;6.82;81.84;93895.78;1716624;83;20986;-53
2021/05/16 02:18:52;;;;;;;27.35;12.65;;;;;;;6.85;81.95;93892.77;1716099;83;21594;-52
2021/05/16 02:21:20;;;;;;;22.98;12.13;;;;;;;6.89;82.11;93898.25;1716272;82;21007;-53
2021/05/16 02:23:47;;;;;;;21.55;11.80;;;;;;;6.92;81.93;93911.03;1716768;83;21054;-54
2021/05/16 02:26:15;;;;;;;25.30;11.08;;;;;;;6.87;82.02;93900.67;1716358;83;21074;-52
2021/05/16 02:28:42;;;;;;;24.55;11.43;;;;;;;6.87;82.32;93897.19;1716775;83;21015;-54
2021/05/16 02:31:13;;;;;;;27.62;12.03;;;;;;;6.90;82.03;93901.14;1716527;83;21011;-53
2021/05/16 02:33:39;;;;;;;31.17;13.68;;;;;;;6.88;81.94;93898.09;1716821;83;21027;-53
2021/05/16 02:36:07;;;;;;;24.67;10.28;;;;;;;6.88;82.05;93899.47;1716677;82;21111;-54
2021/05/16 02:38:34;;;;;;;15.70;9.70;;;;;;;6.93;82.02;93899.51;1716522;83;20915;-53
2021/05/16 02:41:01;;;;;;;20.40;9.05;;;;;;;6.92;82.19;93896.61;1716577;83;20999;-53
2021/05/16 02:43:28;;;;;;;21.27;10.20;;;;;;;6.92;82.30;93901.47;1716641;83;21081;-53
2021/05/16 02:45:56;;;;;;;15.90;8.83;;;;;;;6.95;82.52;93898.45;1716670;83;21071;-53
2021/05/16 02:48:23;;;;;;;15.20;8.53;;;;;;;6.99;82.31;93894.98;1716509;82;21498;-53
2021/05/16 02:50:50;;;;;;;19.27;8.55;;;;;;;6.98;82.30;93894.83;1716566;83;21059;-54
2021/05/16 02:53:20;;;;;;;20.52;9.70;;;;;;;6.94;82.23;93893.61;1715711;82;21059;-53
2021/05/16 02:55:49;;;;;;;24.40;10.85;;;;;;;6.88;82.23;93887.78;1716026;83;21030;-53
2021/05/16 02:58:16;;;;;;;24.82;11.43;;;;;;;6.84;82.33;93890.63;1716782;83;21071;-53
2021/05/16 03:00:44;;;;;;;22.62;13.38;;;;;;;6.82;82.29;93889.53;1690289;83;21082;-53
2021/05/16 03:03:12;;;;;;;26.00;12.73;;;;;;;6.80;82.42;93896.83;1716557;83;21102;-53
2021/05/16 03:05:38;;;;;;;21.48;11.80;;;;;;;6.79;82.30;93894.53;1716664;83;21038;-53
2021/05/16 03:08:06;;;;;;;21.05;11.88;;;;;;;6.77;82.46;93890.89;1716656;83;21057;-53
2021/05/16 03:10:33;;;;;;;23.60;10.93;;;;;;;6.80;82.58;93894.09;1716706;83;20991;-54
2021/05/16 03:13:00;;;;;;;19.82;9.28;;;;;;;6.90;82.69;93894.31;1716666;83;21077;-53
2021/05/16 03:15:28;;;;;;;17.92;10.82;;;;;;;6.97;82.62;93889.20;1716451;82;21067;-52
2021/05/16 03:17:55;;;;;;;15.65;9.45;;;;;;;7.01;82.53;93893.94;1716660;83;21618;-53
2021/05/16 03:20:23;;;;;;;16.10;9.48;;;;;;;7.02;82.65;93890.77;1712900;83;20987;-53
2021/05/16 03:22:50;;;;;;;13.10;8.80;;;;;;;7.11;82.83;93889.45;1711392;83;21511;-53
2021/05/16 03:25:18;;;;;;;17.05;9.03;;;;;;;7.17;82.66;93891.17;1711278;83;21073;-52
2021/05/16 03:27:45;;;;;;;13.45;9.68;;;;;;;7.27;82.76;93891.41;1711103;83;21028;-52
2021/05/16 03:30:14;;;;;;;18.92;10.28;;;;;;;7.39;82.84;93887.84;1711266;82;21511;-53
2021/05/16 03:32:41;;;;;;;19.05;8.70;;;;;;;7.51;82.65;93890.34;1711266;83;21003;-53
2021/05/16 03:35:12;;;;;;;13.58;9.28;;;;;;;7.58;82.61;93894.94;1711403;83;21078;-53
2021/05/16 03:37:40;;;;;;;13.55;7.97;;;;;;;7.69;82.55;93891.80;1711324;83;21066;-53
2021/05/16 03:40:08;;;;;;;12.45;7.53;;;;;;;7.78;82.53;93887.13;1711071;83;21097;-53
2021/05/16 03:42:36;;;;;;;15.15;7.97;;;;;;;7.93;82.40;93890.84;1711366;83;21115;-52
2021/05/16 03:45:05;;;;;;;16.32;7.67;;;;;;;8.08;82.06;93889.67;1711318;83;21067;-53
2021/05/16 03:47:32;;;;;;;15.65;8.33;;;;;;;8.19;81.53;93888.06;1711645;83;20991;-54
2021/05/16 03:49:58;;;;;;;18.62;9.68;;;;;;;8.18;81.03;93896.13;1711526;83;21583;-53
2021/05/16 03:52:25;;;;;;;16.25;8.50;;;;;;;8.14;80.96;93896.86;1711479;83;21424;-52
2021/05/16 03:54:53;;;;;;;14.55;8.53;;;;;;;8.18;80.88;93892.61;1711373;82;20992;-52
2021/05/16 03:57:22;;;;;;;18.42;8.70;;;;;;;8.21;80.60;93894.47;1711401;83;21609;-53
2021/05/16 03:59:48;;;;;;;17.90;9.95;;;;;;;8.20;80.61;93897.81;1711457;83;21015;-52
2021/05/16 04:02:15;;;;;;;34.08;14.18;;;;;;;8.22;80.84;93892.63;1711439;83;21098;-53
2021/05/16 04:04:42;;;;;;;18.90;10.10;;;;;;;8.32;81.22;93892.83;1711526;83;20935;-53
2021/05/16 04:07:09;;;;;;;66.45;13.65;;;;;;;8.45;81.02;93895.44;1683147;83;21023;-53
2021/05/16 04:09:36;;;;;;;15.55;8.30;;;;;;;8.50;80.51;93894.83;1711353;82;21114;-53
2021/05/16 04:12:04;;;;;;;14.63;8.50;;;;;;;8.52;80.21;93897.28;1711499;82;21098;-53
2021/05/16 04:14:30;;;;;;;15.50;8.25;;;;;;;8.52;80.05;93894.55;1711392;83;21041;-54
2021/05/16 04:16:59;;;;;;;17.95;8.20;;;;;;;8.54;80.08;93889.96;1711296;83;20998;-53
2021/05/16 04:19:27;;;;;;;12.85;7.80;;;;;;;8.56;79.97;93884.78;1711031;83;21550;-54
2021/05/16 04:21:53;;;;;;;14.55;7.97;;;;;;;8.54;79.85;93898.96;1711522;82;21024;-54
2021/05/16 04:24:20;;;;;;;10.03;7.62;;;;;;;8.54;79.94;93900.33;1711301;82;20999;-54
2021/05/16 04:26:47;;;;;;;10.55;6.58;;;;;;;8.63;80.43;93897.59;1711491;83;21163;-56
2021/05/16 04:29:14;;;;;;;11.38;7.80;;;;;;;8.82;80.46;93885.42;1711336;82;21498;-54
2021/05/16 04:31:40;;;;;;;14.05;7.95;;;;;;;8.98;80.14;93886.50;1711396;83;20976;-54
2021/05/16 04:34:07;;;;;;;17.37;8.55;;;;;;;9.13;79.84;93882.70;1711472;83;21085;-53
2021/05/16 04:36:34;;;;;;;15.63;8.75;;;;;;;9.27;79.42;93878.56;1711540;82;20932;-53
2021/05/16 04:39:01;;;;;;;20.95;10.90;;;;;;;9.36;79.07;93880.69;1711234;82;21234;-53
2021/05/16 04:41:28;;;;;;;17.10;9.68;;;;;;;9.50;79.02;93884.77;1711205;82;21039;-55
2021/05/16 04:43:55;;;;;;;14.13;9.35;;;;;;;9.76;79.19;93887.32;1711239;83;21086;-53
2021/05/16 04:46:22;;;;;;;9.93;6.70;;;;;;;10.02;78.21;93880.23;1711286;83;21027;-54
2021/05/16 04:48:49;;;;;;;11.50;6.90;;;;;;;10.19;77.50;93874.51;1711427;82;21074;-54
2021/05/16 04:51:15;;;;;;;8.58;6.03;;;;;;;10.23;76.69;93875.09;1711423;82;21077;-52
2021/05/16 04:53:42;;;;;;;10.50;5.97;;;;;;;10.26;76.47;93866.69;1711406;82;21142;-54
2021/05/16 04:56:08;;;;;;;6.78;4.78;;;;;;;10.39;76.03;93855.47;1711456;83;21099;-54
2021/05/16 04:58:37;;;;;;;6.30;4.97;;;;;;;10.53;75.40;93856.16;1711435;83;21090;-54
2021/05/16 05:01:05;;;;;;;5.20;4.70;;;;;;;10.66;74.82;93854.68;1711390;83;21035;-53
2021/05/16 05:03:32;;;;;;;6.58;4.75;;;;;;;10.78;74.43;93855.81;1711391;82;21084;-53
2021/05/16 05:05:59;;;;;;;4.35;3.52;;;;;;;10.89;73.96;93857.42;1711270;82;21019;-54
2021/05/16 05:08:26;;;;;;;8.18;3.90;;;;;;;10.96;73.58;93858.42;1711409;82;21063;-54
2021/05/16 05:10:54;;;;;;;5.72;3.95;;;;;;;11.04;73.11;93854.70;1711482;82;21011;-52
2021/05/16 05:13:21;;;;;;;6.00;4.40;;;;;;;11.13;72.98;93861.52;1711481;82;21470;-54
2021/05/16 05:15:48;;;;;;;4.15;3.37;;;;;;;11.23;72.66;93860.97;1711396;82;21081;-54
2021/05/16 05:18:16;;;;;;;5.03;4.20;;;;;;;11.28;72.21;93850.66;1711288;83;20971;-55
2021/05/16 05:20:46;;;;;;;6.78;3.70;;;;;;;11.30;71.92;93857.83;1711175;83;20999;-55
2021/05/16 05:23:13;;;;;;;5.65;3.95;;;;;;;11.32;71.83;93850.48;1711219;83;21017;-53
2021/05/16 05:25:40;;;;;;;7.28;3.87;;;;;;;11.35;71.78;93844.03;1711469;83;21083;-54
2021/05/16 05:28:06;;;;;;;8.95;4.05;;;;;;;11.37;71.74;93847.07;1711349;83;21804;-54
2021/05/16 05:30:33;;;;;;;10.23;4.47;;;;;;;11.42;71.59;93840.89;1711183;82;21031;-54
2021/05/16 05:33:00;;;;;;;9.28;4.97;;;;;;;11.44;71.43;93832.31;1711315;82;21014;-55
2021/05/16 05:35:26;;;;;;;8.95;5.30;;;;;;;11.44;71.33;93833.69;1711394;83;21058;-54
2021/05/16 05:37:53;;;;;;;14.58;5.15;;;;;;;11.45;71.42;93821.44;1711429;83;20988;-54
2021/05/16 05:40:20;;;;;;;8.63;4.58;;;;;;;11.46;71.44;93828.46;1711329;82;21081;-54
2021/05/16 05:42:47;;;;;;;8.88;4.58;;;;;;;11.48;71.38;93830.13;1711226;83;21086;-54
2021/05/16 05:45:14;;;;;;;8.38;4.40;;;;;;;11.58;71.49;93826.08;1710326;82;20972;-54
2021/05/16 05:47:41;;;;;;;7.50;4.28;;;;;;;11.72;71.32;93821.16;1711343;82;21011;-54
2021/05/16 05:50:10;;;;;;;6.28;4.75;;;;;;;11.87;71.08;93814.27;1711422;82;21570;-54
2021/05/16 05:52:36;;;;;;;6.12;4.37;;;;;;;11.99;70.77;93810.43;1711265;83;21155;-53
2021/05/16 05:55:04;;;;;;;8.55;4.80;;;;;;;12.11;70.40;93812.87;1683199;83;20996;-55
2021/05/16 05:57:31;;;;;;;9.70;4.70;;;;;;;12.26;70.26;93801.19;1711284;82;20961;-54
2021/05/16 05:59:59;;;;;;;5.87;4.17;;;;;;;12.47;70.03;93800.59;1711299;83;21039;-55
2021/05/16 06:02:26;;;;;;;9.85;5.20;;;;;;;12.74;69.39;93803.08;1711367;83;21063;-54
2021/05/16 06:04:54;;;;;;;8.48;4.33;;;;;;;13.06;68.83;93804.75;1711411;82;21079;-54
2021/05/16 06:07:22;;;;;;;7.12;3.90;;;;;;;13.37;68.07;93815.88;1711321;82;21491;-54
2021/05/16 06:09:49;;;;;;;6.37;3.80;;;;;;;13.56;66.94;93819.06;1711263;82;21063;-55
2021/05/16 06:12:15;;;;;;;6.70;3.62;;;;;;;13.66;66.49;93814.90;1711355;82;21154;-54
2021/05/16 06:14:42;;;;;;;8.30;3.80;;;;;;;13.72;66.11;93812.33;1711364;83;21475;-55
2021/05/16 06:17:10;;;;;;;5.05;3.60;;;;;;;13.84;65.76;93820.09;1711352;82;21086;-55
2021/05/16 06:19:37;;;;;;;8.43;3.95;;;;;;;13.98;66.34;93815.05;1711250;83;21039;-53
2021/05/16 06:22:04;;;;;;;10.03;3.50;;;;;;;14.18;65.79;93819.13;1711253;83;20983;-54
2021/05/16 06:24:31;;;;;;;4.92;3.58;;;;;;;14.34;64.56;93820.62;1711232;83;21019;-54
2021/05/16 06:26:58;;;;;;;5.75;3.50;;;;;;;14.44;63.82;93819.92;1711333;82;21019;-54
2021/05/16 06:29:24;;;;;;;672.30;601.35;;;;;;;14.49;62.86;93816.42;1711221;83;21499;-54
2021/05/16 06:31:51;;;;;;;68.33;58.25;;;;;;;14.53;62.89;93810.06;1711274;82;20978;-54
2021/05/16 06:34:18;;;;;;;12.90;8.78;;;;;;;14.62;62.64;93806.33;1711270;83;21581;-54
2021/05/16 06:36:45;;;;;;;8.30;5.83;;;;;;;14.68;62.43;93807.88;1711404;83;21482;-55
2021/05/16 06:39:11;;;;;;;6.80;3.70;;;;;;;14.79;62.23;93808.56;1711426;83;21514;-55
2021/05/16 06:41:38;;;;;;;6.95;4.05;;;;;;;14.87;61.85;93813.13;1711326;82;21039;-54
2021/05/16 06:44:06;;;;;;;6.00;3.17;;;;;;;15.02;61.63;93813.67;1711171;83;21038;-55
2021/05/16 06:46:33;;;;;;;6.70;3.37;;;;;;;15.15;61.13;93812.59;1711362;83;20995;-55
2021/05/16 06:49:00;;;;;;;10.05;3.50;;;;;;;15.27;61.04;93807.84;1711203;83;21035;-55
2021/05/16 06:51:27;;;;;;;3.58;3.05;;;;;;;15.33;61.11;93798.32;1711314;83;21027;-54
2021/05/16 06:53:54;;;;;;;16.95;4.50;;;;;;;15.37;60.51;93805.77;1711288;83;21082;-55
2021/05/16 06:56:21;;;;;;;6.75;3.92;;;;;;;15.35;60.50;93801.34;1711140;82;20987;-55
2021/05/16 06:58:49;;;;;;;10.40;3.35;;;;;;;15.38;60.56;93799.59;1711388;83;20999;-54
2021/05/16 07:01:16;;;;;;;11.78;3.67;;;;;;;15.41;60.50;93794.44;1711222;82;21007;-54
2021/05/16 07:03:44;;;;;;;15.78;5.33;;;;;;;15.45;60.39;93798.48;1711148;82;21031;-55
2021/05/16 07:06:11;;;;;;;10.25;4.17;;;;;;;15.51;60.40;93795.09;1683024;83;21111;-55
2021/05/16 07:08:38;;;;;;;8.33;4.08;;;;;;;15.56;60.23;93793.59;1711212;82;21055;-53
2021/05/16 07:11:05;;;;;;;7.33;3.35;;;;;;;15.56;60.05;93801.91;1711185;83;21657;-53
2021/05/16 07:13:32;;;;;;;6.62;4.00;;;;;;;15.59;59.94;93799.52;1711279;83;21503;-55
2021/05/16 07:15:59;;;;;;;10.00;4.85;;;;;;;15.64;59.74;93799.53;1711315;83;21034;-55
2021/05/16 07:18:26;;;;;;;16.67;7.70;;;;;;;15.69;59.33;93798.77;1711260;83;21167;-54
2021/05/16 07:20:55;;;;;;;5.60;3.83;;;;;;;15.71;59.19;93799.66;1711813;83;21039;-55
2021/05/16 07:23:21;;;;;;;9.63;3.30;;;;;;;15.72;58.97;93795.63;1716693;83;21108;-54
2021/05/16 07:25:48;;;;;;;5.12;3.83;;;;;;;15.70;58.94;93790.58;1716587;82;21142;-54
2021/05/16 07:28:15;;;;;;;5.10;3.17;;;;;;;15.70;58.97;93786.41;1716741;82;21507;-54
2021/05/16 07:30:48;;;;;;;6.95;3.30;;;;;;;15.71;59.04;93787.19;1716685;82;21117;-55
2021/05/16 07:33:15;;;;;;;12.45;3.80;;;;;;;15.75;58.90;93784.27;1716615;83;21015;-55
2021/05/16 07:35:42;;;;;;;11.73;3.02;;;;;;;15.78;58.75;93785.29;1716567;83;20971;-55
2021/05/16 07:38:09;;;;;;;7.12;3.60;;;;;;;15.83;58.75;93788.08;1716617;82;21082;-56
2021/05/16 07:40:37;;;;;;;6.12;4.58;;;;;;;15.91;58.97;93789.08;1716587;83;21075;-55
2021/05/16 07:43:05;;;;;;;6.97;3.50;;;;;;;16.03;58.76;93787.82;1716518;83;21105;-55
2021/05/16 07:45:33;;;;;;;8.75;3.22;;;;;;;16.16;58.42;93782.52;1716541;83;21024;-54
2021/05/16 07:47:59;;;;;;;4.65;2.52;;;;;;;16.34;58.37;93779.22;1716662;83;21530;-55
2021/05/16 07:50:26;;;;;;;4.42;2.70;;;;;;;16.53;58.10;93781.61;1716480;82;21059;-55
2021/05/16 07:52:53;;;;;;;6.97;2.92;;;;;;;16.70;57.52;93783.72;1716619;83;20980;-54
2021/05/16 07:55:20;;;;;;;3.37;2.55;;;;;;;16.86;57.13;93782.88;1716697;83;21320;-55
2021/05/16 07:57:47;;;;;;;7.65;2.70;;;;;;;17.01;56.60;93784.73;1716511;83;21030;-55
2021/05/16 08:00:16;;;;;;;5.37;2.60;;;;;;;17.12;56.29;93789.60;1690666;83;21470;-55
2021/05/16 08:02:43;;;;;;;3.22;2.27;;;;;;;17.23;56.15;93782.61;1716574;83;21015;-55
2021/05/16 08:05:12;;;;;;;6.65;2.85;;;;;;;17.34;56.02;93777.66;1716600;82;21039;-55
2021/05/16 08:07:38;;;;;;;5.78;3.30;;;;;;;17.45;55.77;93778.34;1716569;83;21170;-54
2021/05/16 08:10:07;;;;;;;5.15;2.20;;;;;;;17.55;55.42;93773.23;1716663;82;21499;-55
2021/05/16 08:12:34;;;;;;;9.73;2.98;;;;;;;17.58;55.06;93773.59;1716634;83;20987;-58
2021/05/16 08:15:01;;;;;;;3.90;2.50;;;;;;;17.56;55.22;93777.52;1716501;82;20982;-55
2021/05/16 08:17:28;;;;;;;7.78;2.72;;;;;;;17.53;55.48;93778.56;1716604;83;21114;-54
2021/05/16 08:19:56;;;;;;;5.22;2.60;;;;;;;17.57;56.12;93779.03;1716546;83;21550;-55
2021/05/16 08:22:22;;;;;;;8.95;2.65;;;;;;;17.66;56.36;93771.78;1716336;82;21003;-56
2021/05/16 08:24:49;;;;;;;3.55;2.70;;;;;;;17.80;56.56;93774.85;1716645;83;21055;-55
2021/05/16 08:27:16;;;;;;;4.08;2.33;;;;;;;17.92;56.69;93770.70;1716646;83;21086;-54
2021/05/16 08:29:42;;;;;;;2.98;1.80;;;;;;;18.05;56.98;93768.08;1716841;83;21526;-54
2021/05/16 08:32:09;;;;;;;4.30;2.55;;;;;;;18.17;55.30;93763.93;1716555;83;21164;-57
2021/05/16 08:34:36;;;;;;;5.08;2.40;;;;;;;18.27;54.91;93764.50;1716780;83;21510;-55
2021/05/16 08:37:07;;;;;;;3.90;2.17;;;;;;;18.36;55.06;93767.70;1716723;83;21011;-55
2021/05/16 08:39:34;;;;;;;3.60;2.60;;;;;;;18.52;54.46;93764.63;1716618;83;21517;-54
2021/05/16 08:42:01;;;;;;;5.75;2.20;;;;;;;18.71;54.91;93769.00;1716696;83;20991;-55
2021/05/16 08:44:30;;;;;;;2.98;2.08;;;;;;;18.96;56.02;93771.10;1716693;83;21090;-56
2021/05/16 08:46:56;;;;;;;3.90;2.22;;;;;;;19.18;54.71;93771.63;1716667;83;21630;-54
2021/05/16 08:49:23;;;;;;;2.83;1.87;;;;;;;19.41;54.02;93767.27;1716665;82;21018;-54
2021/05/16 08:51:50;;;;;;;13.15;8.55;;;;;;;19.62;52.95;93773.84;1716668;83;21046;-54
2021/05/16 08:54:18;;;;;;;6.58;2.70;;;;;;;19.81;52.68;93771.80;1716763;83;21531;-56
2021/05/16 08:56:49;;;;;;;2.40;1.87;;;;;;;20.01;52.23;93762.09;1716752;82;21089;-57
2021/05/16 08:59:16;;;;;;;4.33;1.92;;;;;;;20.19;51.25;93760.70;1716690;83;21094;-57
2021/05/16 09:01:49;;;;;;;6.22;2.10;;;;;;;20.34;51.52;93767.94;1716698;82;21000;-58
2021/05/16 09:04:39;;;;;;;3.15;2.35;;;;;;;20.53;51.22;93765.17;1716935;83;20980;-56
2021/05/16 09:07:05;;;;;;;4.78;1.87;;;;;;;20.77;50.14;93755.85;1716771;83;20907;-58
2021/05/16 09:09:39;;;;;;;4.22;1.85;;;;;;;21.03;49.12;93747.48;1716527;83;21091;-55
2021/05/16 09:12:12;;;;;;;3.77;1.90;;;;;;;21.22;49.27;93742.52;1717051;83;21003;-54
2021/05/16 09:14:50;;;;;;;5.42;1.37;;;;;;;21.47;49.11;93738.19;1716833;82;25676;-55
2021/05/16 09:17:31;;;;;;;2.95;1.80;;;;;;;21.77;48.51;93730.14;1716682;82;21054;-56
2021/05/16 09:20:13;;;;;;;4.35;1.60;;;;;;;22.00;47.51;93729.09;1716650;82;21026;-55
2021/05/16 09:22:47;;;;;;;3.92;1.47;;;;;;;22.26;45.27;93721.31;1713494;82;21808;-56
2021/05/16 09:25:22;;;;;;;5.35;1.75;;;;;;;22.47;45.12;93719.27;1711264;83;21531;-55
2021/05/16 09:27:52;;;;;;;3.65;1.30;;;;;;;22.50;44.32;93718.16;1710935;83;21070;-54
2021/05/16 09:30:26;;;;;;;4.42;1.40;;;;;;;22.48;44.41;93720.77;1711249;82;21087;-55
2021/05/16 09:33:09;;;;;;;2.02;1.32;;;;;;;22.38;43.82;93719.77;1711321;83;21067;-55
2021/05/16 09:35:47;;;;;;;2.83;1.22;;;;;;;22.27;44.05;93710.86;1711289;83;21147;-57
2021/05/16 09:38:18;;;;;;;3.75;1.65;;;;;;;22.13;43.67;93709.42;1711132;83;21012;-56
2021/05/16 09:40:57;;;;;;;2.65;1.57;;;;;;;22.06;43.68;93713.66;1709713;82;22623;-56
2021/05/16 09:43:31;;;;;;;4.45;1.32;;;;;;;21.94;43.59;93703.91;1710796;82;21035;-55
2021/05/16 09:46:05;;;;;;;4.05;1.32;;;;;;;21.81;43.35;93701.91;1710833;83;21309;-57
2021/05/16 09:48:44;;;;;;;6.70;1.40;;;;;;;21.66;43.08;93705.22;1704472;83;21085;-54
2021/05/16 09:51:26;;;;;;;6.28;1.70;;;;;;;21.50;42.83;93710.52;1703941;83;21045;-55
2021/05/16 09:54:05;;;;;;;4.42;2.08;;;;;;;21.26;43.50;93712.19;1704050;84;21026;-57
2021/05/16 09:56:37;;;;;;;4.47;2.20;;;;;;;21.02;43.90;93725.00;1704068;84;21004;-55
2021/05/16 09:59:08;;;;;;;;;;;;;;;20.73;45.88;93731.00;1706672;83;21287;-54
2021/05/16 10:01:36;;;;;;;2.50;1.40;;;;;;;20.48;48.12;93743.67;1704217;84;21099;-55
2021/05/16 10:04:04;;;;;;;2.00;1.17;;;;;;;20.16;47.53;93722.00;1703844;84;21092;-54
2021/05/16 10:06:33;;;;;;;2.50;1.32;;;;;;;19.94;48.46;93708.28;1704119;84;21560;-54
2021/05/16 10:09:01;;;;;;;3.83;1.40;;;;;;;19.99;49.42;93710.98;1703819;84;21013;-55
2021/05/16 10:11:30;;;;;;;2.45;1.00;;;;;;;20.13;53.20;93715.33;1704165;84;21089;-55
2021/05/16 10:14:12;;;;;;;1.62;1.20;;;;;;;20.29;53.08;93714.29;1704006;84;21087;-57
2021/05/16 10:16:47;;;;;;;3.33;1.30;;;;;;;20.36;54.50;93713.67;1684148;83;21561;-55
2021/05/16 10:19:20;;;;;;;1.87;1.30;;;;;;;20.45;54.98;93707.02;1641031;87;21053;-56
2021/05/16 10:22:13;;;;;;;5.92;1.32;;;;;;;20.54;54.21;93700.27;1703976;83;21073;-56
2021/05/16 10:24:48;;;;;;;1.57;1.20;;;;;;;20.64;52.35;93698.53;1704206;84;21037;-55
2021/05/16 10:27:21;;;;;;;1.20;1.07;;;;;;;20.78;54.12;93694.45;1704102;84;21084;-55
2021/05/16 10:29:56;;;;;;;4.85;2.30;;;;;;;20.97;51.60;93689.52;1703987;84;21017;-56
2021/05/16 10:32:34;;;;;;;1.37;1.27;;;;;;;21.20;51.79;93687.12;1704167;84;20997;-55
2021/05/16 10:35:05;;;;;;;2.17;1.40;;;;;;;21.41;50.16;93680.16;1704028;84;21024;-55
2021/05/16 10:37:46;;;;;;;2.47;1.37;;;;;;;21.67;48.71;93675.26;1703587;84;21061;-55
2021/05/16 10:40:24;;;;;;;2.97;1.67;;;;;;;21.68;48.52;93675.36;1705319;82;21175;-54
2021/05/16 10:43:00;;;;;;;3.55;1.75;;;;;;;21.71;46.67;93668.70;1667054;85;21677;-54
2021/05/16 10:45:39;;;;;;;7.83;2.45;;;;;;;21.75;47.42;93669.11;1666996;85;21053;-55
2021/05/16 10:48:11;;;;;;;3.35;1.82;;;;;;;21.65;47.06;93664.52;1710809;83;21142;-54
2021/05/16 10:50:51;;;;;;;2.25;1.30;;;;;;;21.52;47.52;93662.50;1711060;83;21630;-56
2021/05/16 10:53:30;;;;;;;5.35;1.50;;;;;;;21.38;46.77;93655.44;1710993;83;21091;-54
2021/05/16 10:56:11;;;;;;;3.62;1.95;;;;;;;21.24;47.20;93653.20;1710372;82;20990;-54
2021/05/16 10:58:46;;;;;;;6.03;1.52;;;;;;;21.09;46.43;93658.64;1711037;83;21019;-56
2021/05/16 11:01:35;;;;;;;5.90;1.57;;;;;;;20.98;46.87;93651.87;1710898;82;21099;-55
2021/05/16 11:04:04;;;;;;;4.55;1.40;;;;;;;20.85;47.37;93651.25;1650727;86;21053;-55
2021/05/16 11:06:43;;;;;;;4.08;2.10;;;;;;;20.73;46.98;93646.40;1667154;86;21171;-55
2021/05/16 11:09:14;;;;;;;3.15;2.10;;;;;;;20.56;47.38;93637.59;1710650;82;22174;-55
2021/05/16 11:11:45;;;;;;;9.90;2.95;;;;;;;20.42;47.35;93641.67;1711016;83;21567;-56
2021/05/16 11:14:26;;;;;;;5.30;1.90;;;;;;;20.32;47.71;93648.96;1709417;83;21063;-56
2021/05/16 11:17:00;;;;;;;4.10;1.67;;;;;;;20.22;48.61;93647.23;1710983;82;20900;-56
2021/05/16 11:19:33;;;;;;;4.20;1.60;;;;;;;20.16;49.60;93634.69;1711021;83;21146;-55
2021/05/16 11:22:11;;;;;;;4.42;2.55;;;;;;;20.22;52.04;93635.33;1697000;82;20948;-55
2021/05/16 11:24:48;;;;;;;7.00;2.02;;;;;;;20.22;54.33;93639.52;1693028;84;21068;-54
2021/05/16 11:27:22;;;;;;;10.53;8.43;;;;;;;20.12;52.53;93646.80;1704632;83;20981;-56
2021/05/16 11:30:06;;;;;;;4.33;3.40;;;;;;;20.03;55.43;93652.81;1705573;84;21010;-56
2021/05/16 11:32:33;;;;;;;3.90;2.30;;;;;;;19.96;55.75;93645.02;1705461;83;21161;-55
2021/05/16 11:35:19;;;;;;;4.55;2.85;;;;;;;20.05;54.81;93649.47;1705520;84;21060;-55
2021/05/16 11:37:49;;;;;;;3.60;2.05;;;;;;;20.17;55.42;93640.38;1705433;84;21068;-56
2021/05/16 11:40:32;;;;;;;2.83;1.80;;;;;;;20.30;57.60;93641.77;1705540;83;21000;-55